Time;durP1;ratioP1;P1;durP2;ratioP2;P2;SDS_P1;SDS_P2;PMS_P1;PMS_P2;Temp;Humidity;BMP_temperature;BMP_pressure;BME280_temperature;BME280_humidity;BME280_pressure;Samples;Min_cycle;Max_cycle;Signal;HPM_P1;HPM_P2
2023/12/11 00:02:20;;;;;;;29.10;8.10;;;;;;;-128.00;-1.00;-1.00;100687;1279;1003851;-29
2023/12/11 00:04:46;;;;;;;20.60;7.40;;;;;;;-128.00;-1.00;-1.00;100635;1279;1004207;-31
2023/12/11 00:07:12;;;;;;;20.60;8.00;;;;;;;-128.00;-1.00;-1.00;100577;1279;1003051;-31
2023/12/11 00:09:37;;;;;;;23.50;7.00;;;;;;;-128.00;-1.00;-1.00;100537;1279;1039226;-32
2023/12/11 00:12:03;;;;;;;16.80;6.80;;;;;;;-128.00;-1.00;-1.00;100586;1280;1003499;-31
2023/12/11 00:14:29;;;;;;;;;;;;;;;-128.00;-1.00;-1.00;100527;1280;1003658;-33
2023/12/11 00:16:55;;;;;;;23.40;8.80;;;;;;;-128.00;-1.00;-1.00;100518;1280;1003887;-32
2023/12/11 00:19:21;;;;;;;21.00;8.70;;;;;;;-128.00;-1.00;-1.00;100573;1279;1013579;-32
2023/12/11 00:21:47;;;;;;;23.80;8.10;;;;;;;-128.00;-1.00;-1.00;100594;1280;1002719;-31
2023/12/11 00:24:13;;;;;;;25.70;8.70;;;;;;;-128.00;-1.00;-1.00;100577;1279;1003099;-32
2023/12/11 00:26:39;;;;;;;22.60;8.40;;;;;;;-128.00;-1.00;-1.00;100614;1280;1056303;-34
2023/12/11 00:29:05;;;;;;;21.90;8.30;;;;;;;-128.00;-1.00;-1.00;100534;1280;1003000;-32
2023/12/11 00:31:30;;;;;;;20.90;7.70;;;;;;;-128.00;-1.00;-1.00;100558;1279;1003410;-31
2023/12/11 00:33:56;;;;;;;22.70;7.90;;;;;;;-128.00;-1.00;-1.00;100612;1280;1046548;-31
2023/12/11 00:36:22;;;;;;;23.60;8.30;;;;;;;-128.00;-1.00;-1.00;100598;1280;1003064;-31
2023/12/11 00:38:48;;;;;;;23.90;9.10;;;;;;;-128.00;-1.00;-1.00;100602;1279;1003281;-31
2023/12/11 00:41:16;;;;;;;21.50;8.30;;;;;;;-128.00;-1.00;-1.00;100485;1279;1012653;-32
2023/12/11 00:43:42;;;;;;;23.40;8.30;;;;;;;-128.00;-1.00;-1.00;100550;1279;1003233;-32
2023/12/11 00:46:10;;;;;;;;;;;;;;;-128.00;-1.00;-1.00;100501;1280;1004110;-32
2023/12/11 00:48:36;;;;;;;22.30;8.00;;;;;;;-128.00;-1.00;-1.00;100513;1280;1003282;-29
2023/12/11 00:51:02;;;;;;;22.30;8.00;;;;;;;-128.00;-1.00;-1.00;100580;1279;1004076;-31
2023/12/11 00:53:28;;;;;;;;;;;;;;;-128.00;-1.00;-1.00;100535;1279;1003426;-33
2023/12/11 00:55:54;;;;;;;25.80;8.60;;;;;;;-128.00;-1.00;-1.00;100467;1280;1039054;-32
2023/12/11 00:58:20;;;;;;;27.80;9.70;;;;;;;-128.00;-1.00;-1.00;100493;1280;1003711;-32
2023/12/11 01:00:45;;;;;;;22.20;9.40;;;;;;;-128.00;-1.00;-1.00;100638;1279;1002985;-31
2023/12/11 01:03:11;;;;;;;24.90;8.60;;;;;;;-128.00;-1.00;-1.00;100468;1279;1058526;-31
2023/12/11 01:05:37;;;;;;;27.50;9.10;;;;;;;-128.00;-1.00;-1.00;100438;1279;1004377;-31
2023/12/11 01:08:03;;;;;;;23.40;9.20;;;;;;;-128.00;-1.00;-1.00;100561;1284;1003415;-30
2023/12/11 01:10:29;;;;;;;27.00;9.10;;;;;;;-128.00;-1.00;-1.00;100487;1280;1060880;-32
2023/12/11 01:12:55;;;;;;;27.00;9.20;;;;;;;-128.00;-1.00;-1.00;100626;1280;1003372;-33
2023/12/11 01:15:21;;;;;;;27.50;8.60;;;;;;;-128.00;-1.00;-1.00;100516;1279;1003237;-30
2023/12/11 01:17:46;;;;;;;26.50;9.20;;;;;;;-128.00;-1.00;-1.00;100587;1280;1039000;-32
2023/12/11 01:20:13;;;;;;;21.50;8.90;;;;;;;-128.00;-1.00;-1.00;100436;1280;1003034;-30
2023/12/11 01:22:39;;;;;;;21.90;8.60;;;;;;;-128.00;-1.00;-1.00;100597;1279;1003028;-31
2023/12/11 01:25:05;;;;;;;26.60;9.20;;;;;;;-128.00;-1.00;-1.00;100505;1279;1003021;-31
2023/12/11 01:27:31;;;;;;;22.20;7.80;;;;;;;-128.00;-1.00;-1.00;100476;1279;1012510;-30
2023/12/11 01:29:57;;;;;;;27.60;8.90;;;;;;;-128.00;-1.00;-1.00;100506;1279;1003047;-33
2023/12/11 01:32:22;;;;;;;24.40;8.40;;;;;;;-128.00;-1.00;-1.00;100519;1280;1003117;-33
2023/12/11 01:34:48;;;;;;;29.10;8.10;;;;;;;-128.00;-1.00;-1.00;100739;1279;1003232;-31
2023/12/11 01:37:14;;;;;;;22.50;8.50;;;;;;;-128.00;-1.00;-1.00;100487;1279;1059214;-31
2023/12/11 01:39:40;;;;;;;;;;;;;;;-128.00;-1.00;-1.00;100503;1279;1003172;-32
2023/12/11 01:42:06;;;;;;;22.20;7.50;;;;;;;-128.00;-1.00;-1.00;100542;1285;1003735;-29
2023/12/11 02:35:32;;;;;;;11.20;5.60;;;;;;;1.82;100.00;98260.46;103433;1286;613328;-32
2023/12/11 02:37:58;;;;;;;13.30;5.20;;;;;;;1.87;100.00;98261.96;103560;1286;95920;-31
2023/12/11 02:40:24;;;;;;;22.20;5.50;;;;;;;-50.06;59.60;58954.86;102280;1285;1004080;-31
2023/12/11 02:42:50;;;;;;;12.20;5.00;;;;;;;-128.00;-1.00;-1.00;100018;1285;1004742;-32
2023/12/11 02:45:16;;;;;;;18.30;5.10;;;;;;;-128.00;-1.00;-1.00;100055;1283;1004769;-31
2023/12/11 02:47:42;;;;;;;15.10;4.80;;;;;;;-128.00;-1.00;-1.00;100111;1286;1005103;-38
2023/12/11 02:50:08;;;;;;;12.90;5.40;;;;;;;-128.00;-1.00;-1.00;100158;1283;1014773;-33
2023/12/11 02:52:34;;;;;;;14.00;4.70;;;;;;;-128.00;-1.00;-1.00;100166;1287;1004971;-32
2023/12/11 02:55:00;;;;;;;21.10;5.80;;;;;;;-128.00;-1.00;-1.00;100098;1282;1004381;-33
2023/12/11 02:57:26;;;;;;;13.60;4.70;;;;;;;-128.00;-1.00;-1.00;100100;1291;1004232;-32
2023/12/11 02:59:52;;;;;;;13.90;4.90;;;;;;;-128.00;-1.00;-1.00;100227;1283;1005093;-32
2023/12/11 03:02:17;;;;;;;16.20;5.60;;;;;;;-128.00;-1.00;-1.00;100109;1283;1013902;-32
2023/12/11 03:04:43;;;;;;;18.10;5.00;;;;;;;-128.00;-1.00;-1.00;100015;1282;1004472;-33
2023/12/11 03:07:10;;;;;;;16.80;4.60;;;;;;;-128.00;-1.00;-1.00;100168;1282;1004768;-31
2023/12/11 03:09:36;;;;;;;13.90;4.90;;;;;;;-128.00;-1.00;-1.00;100036;1283;1004942;-31
2023/12/11 03:12:01;;;;;;;13.90;4.40;;;;;;;-128.00;-1.00;-1.00;100041;1282;1004636;-34
2023/12/11 03:14:27;;;;;;;12.40;4.70;;;;;;;-128.00;-1.00;-1.00;100120;1285;1014513;-32
2023/12/11 03:16:53;;;;;;;12.20;4.80;;;;;;;-128.00;-1.00;-1.00;100126;1282;1004856;-33
2023/12/11 03:19:19;;;;;;;13.90;4.80;;;;;;;-128.00;-1.00;-1.00;100193;1283;1004412;-31
2023/12/11 03:21:44;;;;;;;20.60;4.10;;;;;;;-128.00;-1.00;-1.00;100034;1287;1056314;-31
2023/12/11 03:24:10;;;;;;;16.50;5.30;;;;;;;-128.00;-1.00;-1.00;100137;1288;1004725;-33
2023/12/11 03:26:36;;;;;;;11.60;4.50;;;;;;;-128.00;-1.00;-1.00;100161;1281;1004647;-31
2023/12/11 03:29:02;;;;;;;12.40;4.40;;;;;;;-128.00;-1.00;-1.00;100030;1282;1047349;-32
2023/12/11 03:31:28;;;;;;;;;;;;;;;-128.00;-1.00;-1.00;100177;1285;1003581;-31
2023/12/11 03:33:54;;;;;;;11.60;3.90;;;;;;;-128.00;-1.00;-1.00;100093;1286;1004531;-32
2023/12/11 03:36:20;;;;;;;9.00;4.00;;;;;;;-128.00;-1.00;-1.00;100053;1285;1004037;-32
2023/12/11 03:38:46;;;;;;;;;;;;;;;-128.00;-1.00;-1.00;98682;1287;1045748;-31
2023/12/11 03:41:12;;;;;;;13.90;3.40;;;;;;;-128.00;-1.00;-1.00;100187;1282;1004104;-36
2023/12/11 03:43:37;;;;;;;13.30;3.70;;;;;;;-128.00;-1.00;-1.00;95188;1283;1003828;-31
2023/12/11 03:46:04;;;;;;;14.50;4.00;;;;;;;-128.00;-1.00;-1.00;100299;1283;1003377;-30
2023/12/11 03:48:30;;;;;;;14.60;3.80;;;;;;;-128.00;-1.00;-1.00;100106;1284;1003662;-30
2023/12/11 03:50:56;;;;;;;;;;;;;;;-128.00;-1.00;-1.00;98747;1284;1004156;-30
2023/12/11 03:53:21;;;;;;;14.00;3.80;;;;;;;-128.00;-1.00;-1.00;99517;1284;1004328;-30
2023/12/11 03:55:47;;;;;;;9.30;3.50;;;;;;;-128.00;-1.00;-1.00;100264;1282;1054497;-30
2023/12/11 03:58:13;;;;;;;14.60;3.80;;;;;;;-128.00;-1.00;-1.00;100201;1285;1003562;-32
2023/12/11 04:00:39;;;;;;;14.00;3.70;;;;;;;-128.00;-1.00;-1.00;100237;1286;1003855;-32
2023/12/11 04:03:05;;;;;;;10.60;4.10;;;;;;;-128.00;-1.00;-1.00;100212;1286;1003467;-33
2023/12/11 04:05:31;;;;;;;15.10;4.10;;;;;;;-128.00;-1.00;-1.00;100234;1286;1003715;-32
2023/12/11 04:07:57;;;;;;;15.70;4.00;;;;;;;-128.00;-1.00;-1.00;98756;1287;1055455;-32
2023/12/11 04:10:23;;;;;;;13.90;4.00;;;;;;;-128.00;-1.00;-1.00;98182;1282;2002504;-31
2023/12/11 04:12:49;;;;;;;15.30;4.10;;;;;;;-128.00;-1.00;-1.00;99581;1288;1041542;-31
2023/12/11 04:15:15;;;;;;;17.60;4.00;;;;;;;-128.00;-1.00;-1.00;99501;1283;1003310;-31
2023/12/11 04:17:42;;;;;;;16.90;4.20;;;;;;;-128.00;-1.00;-1.00;100270;1282;1002995;-32
2023/12/11 04:20:09;;;;;;;11.90;3.50;;;;;;;-128.00;-1.00;-1.00;100231;1281;1002742;-31
2023/12/11 04:22:35;;;;;;;11.10;3.50;;;;;;;-128.00;-1.00;-1.00;100234;1282;1003535;-31
2023/12/11 04:25:00;;;;;;;14.90;3.90;;;;;;;-128.00;-1.00;-1.00;100277;1282;1003872;-31
2023/12/11 04:27:26;;;;;;;12.00;3.40;;;;;;;-128.00;-1.00;-1.00;100256;1283;1005321;-31
2023/12/11 04:29:53;;;;;;;8.70;3.80;;;;;;;-128.00;-1.00;-1.00;100381;1283;1058157;-32
2023/12/11 04:32:19;;;;;;;12.30;4.00;;;;;;;-128.00;-1.00;-1.00;99491;1283;1005025;-32
2023/12/11 04:34:45;;;;;;;18.00;4.30;;;;;;;-128.00;-1.00;-1.00;100174;1283;1004750;-30
2023/12/11 04:37:11;;;;;;;;;;;;;;;-128.00;-1.00;-1.00;100180;1288;1039140;-33
2023/12/11 04:39:36;;;;;;;12.40;3.60;;;;;;;-128.00;-1.00;-1.00;100310;1282;1003543;-32
2023/12/11 04:42:03;;;;;;;12.10;3.10;;;;;;;-128.00;-1.00;-1.00;100272;1283;1003798;-32
2023/12/11 04:44:28;;;;;;;10.60;3.00;;;;;;;-128.00;-1.00;-1.00;100243;1287;1059051;-32
2023/12/11 04:46:54;;;;;;;13.50;3.70;;;;;;;-128.00;-1.00;-1.00;100239;1282;1003538;-32
2023/12/11 04:49:20;;;;;;;;;;;;;;;-128.00;-1.00;-1.00;100316;1285;1003457;-32
2023/12/11 04:51:46;;;;;;;11.60;3.70;;;;;;;-128.00;-1.00;-1.00;100271;1282;1002940;-32
2023/12/11 04:54:12;;;;;;;15.50;3.80;;;;;;;-128.00;-1.00;-1.00;100205;1286;1056322;-32
2023/12/11 04:56:38;;;;;;;11.30;3.90;;;;;;;-128.00;-1.00;-1.00;100154;1282;1003594;-33
2023/12/11 04:59:04;;;;;;;12.00;4.30;;;;;;;-128.00;-1.00;-1.00;100182;1286;1004495;-33
2023/12/11 05:01:29;;;;;;;10.40;4.00;;;;;;;-128.00;-1.00;-1.00;100214;1283;1003229;-33
2023/12/11 05:03:55;;;;;;;14.00;3.90;;;;;;;-128.00;-1.00;-1.00;100156;1282;1059990;-31
2023/12/11 05:06:21;;;;;;;15.70;4.40;;;;;;;-128.00;-1.00;-1.00;100345;1284;1003633;-32
2023/12/11 05:08:47;;;;;;;13.40;4.40;;;;;;;-128.00;-1.00;-1.00;100234;1285;1003401;-31
2023/12/11 05:11:13;;;;;;;15.10;5.10;;;;;;;-128.00;-1.00;-1.00;100297;1286;1039112;-32
2023/12/11 05:13:39;;;;;;;11.30;4.20;;;;;;;-128.00;-1.00;-1.00;100220;1283;1003520;-32
2023/12/11 05:16:05;;;;;;;13.70;4.30;;;;;;;-128.00;-1.00;-1.00;100180;1287;1003405;-31
2023/12/11 05:18:30;;;;;;;;;;;;;;;-128.00;-1.00;-1.00;100320;1283;1059092;-32
2023/12/11 05:20:57;;;;;;;10.90;3.70;;;;;;;-128.00;-1.00;-1.00;100227;1286;1002721;-32
2023/12/11 05:23:22;;;;;;;15.70;5.10;;;;;;;-128.00;-1.00;-1.00;100320;1283;1003478;-33
2023/12/11 05:25:48;;;;;;;13.00;4.40;;;;;;;-128.00;-1.00;-1.00;100240;1282;1003141;-34
2023/12/11 05:28:14;;;;;;;17.30;4.80;;;;;;;-128.00;-1.00;-1.00;100192;1286;1056538;-30
2023/12/11 05:30:40;;;;;;;16.90;4.30;;;;;;;-128.00;-1.00;-1.00;100169;1284;1003407;-30
2023/12/11 05:33:05;;;;;;;;;;;;;;;-128.00;-1.00;-1.00;100229;1282;1004423;-31
2023/12/11 05:35:31;;;;;;;20.10;5.00;;;;;;;-128.00;-1.00;-1.00;100243;1282;1002897;-31
2023/12/11 05:37:57;;;;;;;17.40;5.60;;;;;;;-128.00;-1.00;-1.00;100328;1283;1059459;-32
2023/12/11 05:40:23;;;;;;;16.20;5.00;;;;;;;-128.00;-1.00;-1.00;100355;1283;1003185;-32
2023/12/11 05:42:50;;;;;;;15.40;4.30;;;;;;;-128.00;-1.00;-1.00;100166;1282;1003363;-32
2023/12/11 05:45:16;;;;;;;17.60;3.90;;;;;;;-128.00;-1.00;-1.00;100264;1282;1039035;-32
2023/12/11 05:47:42;;;;;;;;;;;;;;;-128.00;-1.00;-1.00;100300;1282;1003145;-31
2023/12/11 05:50:08;;;;;;;11.10;4.20;;;;;;;-128.00;-1.00;-1.00;100235;1286;1003379;-32
2023/12/11 05:52:34;;;;;;;16.00;4.20;;;;;;;-128.00;-1.00;-1.00;100288;1286;1058655;-31
2023/12/11 05:55:00;;;;;;;;;;;;;;;-128.00;-1.00;-1.00;100246;1283;1003847;-31
2023/12/11 05:57:25;;;;;;;15.30;3.80;;;;;;;-128.00;-1.00;-1.00;100362;1282;1004410;-31
2023/12/11 05:59:51;;;;;;;;;;;;;;;-128.00;-1.00;-1.00;100382;1284;1059770;-31
2023/12/11 06:02:17;;;;;;;10.70;3.20;;;;;;;-128.00;-1.00;-1.00;100222;1282;1002825;-31
2023/12/11 06:04:43;;;;;;;16.10;3.60;;;;;;;-128.00;-1.00;-1.00;100263;1282;1003378;-32
2023/12/11 06:07:09;;;;;;;13.10;4.30;;;;;;;-128.00;-1.00;-1.00;100309;1286;1039280;-32
2023/12/11 06:09:35;;;;;;;14.70;3.80;;;;;;;-128.00;-1.00;-1.00;100210;1282;1003712;-30
2023/12/11 06:12:00;;;;;;;19.50;3.80;;;;;;;-128.00;-1.00;-1.00;100319;1282;1003052;-30
2023/12/11 06:14:26;;;;;;;10.10;3.90;;;;;;;-128.00;-1.00;-1.00;100284;1282;1059286;-32
2023/12/11 06:16:52;;;;;;;8.50;3.20;;;;;;;-128.00;-1.00;-1.00;100255;1282;1004161;-31
2023/12/11 06:19:18;;;;;;;16.30;3.80;;;;;;;-128.00;-1.00;-1.00;100317;1282;1003421;-30
2023/12/11 06:21:44;;;;;;;12.30;3.60;;;;;;;-128.00;-1.00;-1.00;100112;1283;1059012;-32
2023/12/11 06:24:10;;;;;;;10.30;2.90;;;;;;;-128.00;-1.00;-1.00;100225;1281;1004343;-31
2023/12/11 06:26:36;;;;;;;11.50;3.20;;;;;;;-128.00;-1.00;-1.00;100196;1284;1004116;-31
2023/12/11 06:29:02;;;;;;;15.20;3.40;;;;;;;-128.00;-1.00;-1.00;100353;1283;1038669;-33
2023/12/11 06:31:29;;;;;;;9.80;3.10;;;;;;;-128.00;-1.00;-1.00;100306;1285;1003205;-32
2023/12/11 06:33:55;;;;;;;11.30;3.10;;;;;;;-128.00;-1.00;-1.00;100164;1282;1003445;-31
2023/12/11 06:36:21;;;;;;;10.40;3.30;;;;;;;-128.00;-1.00;-1.00;100225;1282;1003583;-33
2023/12/11 06:38:50;;;;;;;12.30;3.70;;;;;;;-128.00;-1.00;-1.00;100200;1282;1012258;-33
2023/12/11 06:41:17;;;;;;;12.30;2.80;;;;;;;-128.00;-1.00;-1.00;100171;1282;1038356;-32
2023/12/11 06:43:47;;;;;;;9.10;3.30;;;;;;;-128.00;-1.00;-1.00;100295;1282;1003245;-32
2023/12/11 06:46:13;;;;;;;9.60;3.20;;;;;;;-128.00;-1.00;-1.00;100248;1283;1059238;-33
2023/12/11 06:48:39;;;;;;;11.30;3.60;;;;;;;-128.00;-1.00;-1.00;100298;1282;1004269;-32
2023/12/11 06:51:05;;;;;;;12.70;3.90;;;;;;;-128.00;-1.00;-1.00;100205;1286;1005563;-32
2023/12/11 06:53:31;;;;;;;12.70;3.80;;;;;;;-128.00;-1.00;-1.00;100263;1282;1039404;-33
2023/12/11 06:55:57;;;;;;;11.50;4.10;;;;;;;-128.00;-1.00;-1.00;100329;1282;1004009;-33
2023/12/11 06:58:23;;;;;;;9.90;4.20;;;;;;;-128.00;-1.00;-1.00;100269;1286;1003117;-33
2023/12/11 07:00:50;;;;;;;10.30;3.40;;;;;;;-128.00;-1.00;-1.00;100171;1282;1058013;-31
2023/12/11 07:03:17;;;;;;;11.10;3.70;;;;;;;-128.00;-1.00;-1.00;100194;1282;1003402;-32
2023/12/11 07:05:43;;;;;;;11.10;3.80;;;;;;;-128.00;-1.00;-1.00;100216;1287;1002689;-31
2023/12/11 07:08:09;;;;;;;9.90;3.90;;;;;;;-128.00;-1.00;-1.00;100305;1282;1002597;-33
2023/12/11 07:10:35;;;;;;;13.10;4.30;;;;;;;-128.00;-1.00;-1.00;100292;1282;1003224;-31
2023/12/11 07:13:00;;;;;;;;;;;;;;;-128.00;-1.00;-1.00;100281;1282;1003869;-29
2023/12/11 07:15:26;;;;;;;11.20;4.10;;;;;;;-128.00;-1.00;-1.00;100180;1286;1002989;-31
2023/12/11 07:17:52;;;;;;;8.00;2.90;;;;;;;-128.00;-1.00;-1.00;100199;1288;1038985;-31
2023/12/11 07:20:18;;;;;;;8.80;2.50;;;;;;;-128.00;-1.00;-1.00;100304;1282;1003429;-30
2023/12/11 07:22:45;;;;;;;7.60;2.60;;;;;;;-128.00;-1.00;-1.00;100257;1282;1003354;-30
2023/12/11 07:25:12;;;;;;;8.70;2.90;;;;;;;-128.00;-1.00;-1.00;100173;1282;1058608;-31
2023/12/11 07:27:41;;;;;;;7.50;2.80;;;;;;;-128.00;-1.00;-1.00;100194;1282;1003368;-32
2023/12/11 07:30:07;;;;;;;6.10;2.40;;;;;;;-128.00;-1.00;-1.00;100273;1286;1038280;-33
2023/12/11 07:32:33;;;;;;;10.90;2.60;;;;;;;-128.00;-1.00;-1.00;100213;1284;1003436;-31
2023/12/11 07:35:00;;;;;;;;;;;;;;;-128.00;-1.00;-1.00;100198;1282;1002797;-30
2023/12/11 07:37:26;;;;;;;8.40;2.70;;;;;;;-128.00;-1.00;-1.00;100275;1282;1003907;-30
2023/12/11 07:39:51;;;;;;;7.10;2.40;;;;;;;-128.00;-1.00;-1.00;100148;1282;1003518;-32
2023/12/11 07:42:17;;;;;;;5.00;2.20;;;;;;;-128.00;-1.00;-1.00;100159;1286;1039937;-31
2023/12/11 07:44:43;;;;;;;6.80;2.50;;;;;;;-128.00;-1.00;-1.00;100216;1281;1003595;-31
2023/12/11 07:47:09;;;;;;;5.90;2.50;;;;;;;-128.00;-1.00;-1.00;100227;1286;1002874;-31
2023/12/11 07:49:35;;;;;;;6.70;2.90;;;;;;;-128.00;-1.00;-1.00;100186;1282;1059611;-32
2023/12/11 07:52:02;;;;;;;7.10;2.80;;;;;;;-128.00;-1.00;-1.00;100261;1282;1004304;-31
2023/12/11 07:54:28;;;;;;;8.40;2.30;;;;;;;-128.00;-1.00;-1.00;100202;1286;1003380;-31
2023/12/11 07:56:53;;;;;;;6.10;2.90;;;;;;;-128.00;-1.00;-1.00;100241;1282;1003506;-33
2023/12/11 07:59:19;;;;;;;7.30;2.70;;;;;;;-128.00;-1.00;-1.00;100381;1282;1003116;-32
2023/12/11 08:01:45;;;;;;;8.00;2.60;;;;;;;-128.00;-1.00;-1.00;100140;1282;1058579;-32
2023/12/11 08:04:12;;;;;;;;;;;;;;;-128.00;-1.00;-1.00;100278;1282;1004098;-33
2023/12/11 08:06:41;;;;;;;;;;;;;;;-128.00;-1.00;-1.00;100263;1282;1003346;-31
2023/12/11 08:09:08;;;;;;;7.30;2.40;;;;;;;-128.00;-1.00;-1.00;100228;1282;1046443;-31
2023/12/11 08:11:34;;;;;;;8.20;2.90;;;;;;;-128.00;-1.00;-1.00;100273;1282;1004159;-31
2023/12/11 08:14:00;;;;;;;8.30;3.30;;;;;;;-128.00;-1.00;-1.00;100297;1282;1003338;-31
2023/12/11 08:16:25;;;;;;;4.30;1.90;;;;;;;-128.00;-1.00;-1.00;100166;1285;1003456;-31
2023/12/11 08:18:51;;;;;;;8.90;3.20;;;;;;;-128.00;-1.00;-1.00;100282;1284;1003834;-33
2023/12/11 08:21:17;;;;;;;9.00;2.90;;;;;;;-128.00;-1.00;-1.00;100244;1282;1046568;-33
2023/12/11 08:23:43;;;;;;;9.20;3.00;;;;;;;-128.00;-1.00;-1.00;100225;1281;1003184;-32
2023/12/11 08:26:10;;;;;;;8.90;2.70;;;;;;;-128.00;-1.00;-1.00;100198;1282;1003061;-32
2023/12/11 08:28:35;;;;;;;6.60;2.40;;;;;;;-128.00;-1.00;-1.00;100256;1284;1003037;-31
2023/12/11 08:31:03;;;;;;;6.80;2.70;;;;;;;-128.00;-1.00;-1.00;100198;1287;1003442;-30
2023/12/11 08:33:30;;;;;;;6.30;2.60;;;;;;;-128.00;-1.00;-1.00;100227;1282;1045680;-30
2023/12/11 08:35:55;;;;;;;8.20;2.50;;;;;;;-128.00;-1.00;-1.00;100241;1282;1004044;-31
2023/12/11 08:38:23;;;;;;;6.20;2.90;;;;;;;-128.00;-1.00;-1.00;100182;1282;1003488;-31
2023/12/11 08:40:49;;;;;;;8.00;2.60;;;;;;;-128.00;-1.00;-1.00;100166;1283;1003189;-32
2023/12/11 08:43:16;;;;;;;7.90;2.90;;;;;;;-128.00;-1.00;-1.00;100189;1282;1004171;-31
2023/12/11 08:45:42;;;;;;;6.70;2.40;;;;;;;-128.00;-1.00;-1.00;100237;1282;1003385;-30
2023/12/11 08:48:08;;;;;;;;;;;;;;;-128.00;-1.00;-1.00;100261;1282;1004309;-32
2023/12/11 08:50:34;;;;;;;6.30;2.60;;;;;;;-128.00;-1.00;-1.00;100317;1282;1003192;-31
2023/12/11 08:53:00;;;;;;;9.10;3.00;;;;;;;-128.00;-1.00;-1.00;100152;1282;1058117;-32
2023/12/11 08:55:27;;;;;;;7.30;2.70;;;;;;;-128.00;-1.00;-1.00;100240;1282;1004199;-34
2023/12/11 08:57:53;;;;;;;5.40;1.90;;;;;;;-128.00;-1.00;-1.00;100255;1282;1002779;-34
2023/12/11 09:00:19;;;;;;;6.30;2.10;;;;;;;-128.00;-1.00;-1.00;100228;1282;1002413;-32
2023/12/11 09:02:44;;;;;;;5.70;2.20;;;;;;;-128.00;-1.00;-1.00;100278;1282;1003239;-32
2023/12/11 09:05:10;;;;;;;4.50;1.60;;;;;;;-128.00;-1.00;-1.00;100212;1282;1058759;-31
2023/12/11 09:07:36;;;;;;;3.90;1.70;;;;;;;-128.00;-1.00;-1.00;100263;1282;1005534;-32
2023/12/11 09:10:03;;;;;;;5.20;2.00;;;;;;;-128.00;-1.00;-1.00;100240;1286;1002677;-32
2023/12/11 09:12:29;;;;;;;11.30;2.70;;;;;;;-128.00;-1.00;-1.00;100165;1282;1059472;-32
2023/12/11 09:14:55;;;;;;;6.30;2.00;;;;;;;-128.00;-1.00;-1.00;100226;1282;1003230;-31
2023/12/11 09:17:21;;;;;;;4.30;2.10;;;;;;;-128.00;-1.00;-1.00;100254;1282;1002857;-32
2023/12/11 09:19:49;;;;;;;4.40;1.80;;;;;;;-128.00;-1.00;-1.00;100214;1282;1038187;-31
2023/12/11 09:22:15;;;;;;;5.10;1.50;;;;;;;-128.00;-1.00;-1.00;100282;1282;1002899;-33
2023/12/11 09:24:41;;;;;;;3.80;1.20;;;;;;;-128.00;-1.00;-1.00;100339;1282;1004064;-32
2023/12/11 09:27:06;;;;;;;;;;;;;;;-128.00;-1.00;-1.00;100206;1282;1058511;-32
2023/12/11 09:29:33;;;;;;;6.20;1.70;;;;;;;-128.00;-1.00;-1.00;100194;1282;1002840;-33
2023/12/11 09:31:59;;;;;;;4.70;1.50;;;;;;;-128.00;-1.00;-1.00;100221;1286;1002842;-31
2023/12/11 09:34:25;;;;;;;3.60;1.50;;;;;;;-128.00;-1.00;-1.00;100355;1282;1004219;-30
2023/12/11 09:36:50;;;;;;;5.30;1.60;;;;;;;-128.00;-1.00;-1.00;100234;1282;1003111;-32
2023/12/11 09:39:16;;;;;;;4.20;1.30;;;;;;;-128.00;-1.00;-1.00;100140;1285;1059388;-32
2023/12/11 09:41:43;;;;;;;4.00;1.20;;;;;;;-128.00;-1.00;-1.00;100251;1282;1003099;-31
2023/12/11 09:44:09;;;;;;;6.70;1.60;;;;;;;-128.00;-1.00;-1.00;100278;1283;1003406;-32
2023/12/11 09:46:41;;;;;;;5.30;1.60;;;;;;;-128.00;-1.00;-1.00;100338;1282;1003849;-31
2023/12/11 09:49:07;;;;;;;3.20;1.00;;;;;;;-128.00;-1.00;-1.00;100272;1281;1061358;-32
2023/12/11 09:51:33;;;;;;;4.10;1.70;;;;;;;-128.00;-1.00;-1.00;100252;1282;1003581;-32
2023/12/11 09:53:59;;;;;;;5.90;1.20;;;;;;;-128.00;-1.00;-1.00;100234;1282;1003165;-31
2023/12/11 09:56:25;;;;;;;7.80;1.50;;;;;;;-128.00;-1.00;-1.00;100263;1282;1003181;-31
2023/12/11 09:58:51;;;;;;;4.80;1.50;;;;;;;-128.00;-1.00;-1.00;100216;1282;1046782;-33
2023/12/11 10:01:16;;;;;;;5.50;1.20;;;;;;;-128.00;-1.00;-1.00;100200;1282;1003272;-34
2023/12/11 10:03:42;;;;;;;7.40;1.60;;;;;;;-128.00;-1.00;-1.00;100259;1282;1003448;-33
2023/12/11 10:06:08;;;;;;;3.60;0.70;;;;;;;-128.00;-1.00;-1.00;100237;1282;1012407;-32
2023/12/11 10:08:44;;;;;;;4.60;1.50;;;;;;;-128.00;-1.00;-1.00;100276;1282;1004315;-32
2023/12/11 10:11:11;;;;;;;5.00;1.30;;;;;;;-128.00;-1.00;-1.00;100159;1282;1046848;-32
2023/12/11 10:13:37;;;;;;;7.70;1.00;;;;;;;-128.00;-1.00;-1.00;100218;1282;1002880;-31
2023/12/11 10:16:05;;;;;;;4.20;1.00;;;;;;;-128.00;-1.00;-1.00;100216;1282;1004147;-31
2023/12/11 10:18:31;;;;;;;2.50;0.80;;;;;;;-128.00;-1.00;-1.00;100255;1284;1004361;-32
2023/12/11 10:20:58;;;;;;;4.00;0.90;;;;;;;-128.00;-1.00;-1.00;100209;1282;1002957;-32
2023/12/11 10:23:24;;;;;;;3.00;1.10;;;;;;;-128.00;-1.00;-1.00;100159;1282;1003060;-32
2023/12/11 10:25:52;;;;;;;2.70;0.90;;;;;;;-128.00;-1.00;-1.00;100198;1286;1002937;-31
2023/12/11 10:28:18;;;;;;;4.00;0.90;;;;;;;-128.00;-1.00;-1.00;100139;1282;1002855;-31
2023/12/11 10:30:56;;;;;;;3.90;0.90;;;;;;;-128.00;-1.00;-1.00;100231;1282;1002807;-32
2023/12/11 10:33:23;;;;;;;3.70;1.00;;;;;;;-128.00;-1.00;-1.00;100199;1282;1059708;-30
2023/12/11 10:35:50;;;;;;;3.60;1.00;;;;;;;-128.00;-1.00;-1.00;100213;1284;1004876;-32
2023/12/11 10:38:28;;;;;;;2.40;0.90;;;;;;;-128.00;-1.00;-1.00;100205;1286;1003970;-35
2023/12/11 10:40:55;;;;;;;3.80;0.90;;;;;;;-128.00;-1.00;-1.00;100201;1282;1048139;-32
2023/12/11 10:43:21;;;;;;;2.70;0.70;;;;;;;-128.00;-1.00;-1.00;100309;1282;1003101;-31
2023/12/11 10:45:47;;;;;;;3.90;1.00;;;;;;;-128.00;-1.00;-1.00;100192;1282;1003266;-35
2023/12/11 10:48:13;;;;;;;1.90;0.60;;;;;;;-128.00;-1.00;-1.00;100248;1287;1004533;-32
2023/12/11 10:50:39;;;;;;;3.60;0.90;;;;;;;-128.00;-1.00;-1.00;100218;1282;1003198;-34
2023/12/11 10:53:04;;;;;;;3.10;1.00;;;;;;;-128.00;-1.00;-1.00;100207;1282;1047925;-32
2023/12/11 10:55:30;;;;;;;2.60;0.70;;;;;;;-128.00;-1.00;-1.00;100211;1282;1004731;-33
2023/12/11 10:58:02;;;;;;;2.60;1.20;;;;;;;-128.00;-1.00;-1.00;100283;1282;1002815;-32
2023/12/11 11:00:30;;;;;;;3.50;0.80;;;;;;;-128.00;-1.00;-1.00;100211;1282;1013460;-36
2023/12/11 11:02:56;;;;;;;2.40;0.80;;;;;;;-128.00;-1.00;-1.00;100235;1285;1003312;-31
2023/12/11 11:05:22;;;;;;;5.30;0.90;;;;;;;-128.00;-1.00;-1.00;100178;1282;1003510;-32
2023/12/11 11:08:12;;;;;;;2.00;0.90;;;;;;;-128.00;-1.00;-1.00;100252;1282;1003691;-32
2023/12/11 11:10:40;;;;;;;2.00;0.70;;;;;;;-128.00;-1.00;-1.00;100313;1282;1056756;-32
2023/12/11 11:13:10;;;;;;;3.60;1.00;;;;;;;-128.00;-1.00;-1.00;100258;1282;1060532;-38
2023/12/11 11:15:36;;;;;;;2.60;0.90;;;;;;;-128.00;-1.00;-1.00;100152;1282;1013210;-32
2023/12/11 11:18:05;;;;;;;5.10;0.90;;;;;;;-128.00;-1.00;-1.00;100246;1282;1004363;-32
2023/12/11 11:20:31;;;;;;;4.00;1.00;;;;;;;-128.00;-1.00;-1.00;100230;1282;1004576;-32
2023/12/11 11:23:26;;;;;;;3.90;1.20;;;;;;;-128.00;-1.00;-1.00;100256;1282;1002965;-33
2023/12/11 11:25:52;;;;;;;3.70;1.30;;;;;;;-128.00;-1.00;-1.00;100135;1282;1057758;-32
2023/12/11 11:28:44;;;;;;;2.30;0.80;;;;;;;-128.00;-1.00;-1.00;100157;1282;1003375;-32
2023/12/11 11:31:10;;;;;;;4.20;0.80;;;;;;;-128.00;-1.00;-1.00;100209;1282;1012843;-33
2023/12/11 11:33:52;;;;;;;2.80;0.90;;;;;;;-128.00;-1.00;-1.00;100224;1282;1003698;-32
2023/12/11 11:36:19;;;;;;;4.90;0.90;;;;;;;-128.00;-1.00;-1.00;100250;1282;1047513;-32
2023/12/11 11:38:57;;;;;;;3.50;1.00;;;;;;;-128.00;-1.00;-1.00;100339;1282;1003109;-32
2023/12/11 11:41:25;;;;;;;2.90;0.80;;;;;;;-128.00;-1.00;-1.00;100394;1282;1056740;-33
2023/12/11 11:43:58;;;;;;;6.00;1.80;;;;;;;-128.00;-1.00;-1.00;100203;1282;1003531;-31
2023/12/11 11:46:25;;;;;;;3.00;0.80;;;;;;;-128.00;-1.00;-1.00;100257;1282;1012960;-39
2023/12/11 11:48:51;;;;;;;2.10;0.80;;;;;;;-128.00;-1.00;-1.00;100225;1286;1003724;-31
2023/12/11 11:51:17;;;;;;;4.50;0.90;;;;;;;-128.00;-1.00;-1.00;100225;1284;1003133;-32
2023/12/11 11:53:43;;;;;;;;;;;;;;;-128.00;-1.00;-1.00;100313;1282;1003478;-30
2023/12/11 11:56:11;;;;;;;6.20;1.40;;;;;;;-128.00;-1.00;-1.00;100178;1282;1062237;-31
2023/12/11 11:58:37;;;;;;;11.80;5.70;;;;;;;-128.00;-1.00;-1.00;100194;1282;1003688;-31
2023/12/11 12:01:06;;;;;;;5.30;1.30;;;;;;;-128.00;-1.00;-1.00;100298;1282;1003155;-32
2023/12/11 12:03:43;;;;;;;5.30;2.20;;;;;;;-128.00;-1.00;-1.00;100259;1282;1046513;-31
2023/12/11 12:06:09;;;;;;;5.60;1.70;;;;;;;-128.00;-1.00;-1.00;100228;1282;1060720;-31
2023/12/11 12:08:36;;;;;;;;;;;;;;;-128.00;-1.00;-1.00;100324;1282;1003483;-34